sensor_id;sensor_type;location;lat;lon;timestamp;P1;durP1;ratioP1;P2;durP2;ratioP2
11986;SDS011;6053;51.382;6.768;2024-03-23T00:53:50;2.85;;;1.42;;
11986;SDS011;6053;51.382;6.768;2024-03-23T00:56:17;1.00;;;1.00;;
11986;SDS011;6053;51.382;6.768;2024-03-23T00:58:44;1.55;;;1.45;;
11986;SDS011;6053;51.382;6.768;2024-03-23T01:01:11;1.47;;;1.27;;
11986;SDS011;6053;51.382;6.768;2024-03-23T01:03:44;2.20;;;1.40;;
11986;SDS011;6053;51.382;6.768;2024-03-23T01:06:10;1.00;;;1.00;;
11986;SDS011;6053;51.382;6.768;2024-03-23T01:08:41;2.03;;;1.30;;
11986;SDS011;6053;51.382;6.768;2024-03-23T01:11:11;1.30;;;1.20;;
11986;SDS011;6053;51.382;6.768;2024-03-23T01:13:41;1.20;;;1.10;;
11986;SDS011;6053;51.382;6.768;2024-03-23T01:16:07;1.00;;;1.00;;
11986;SDS011;6053;51.382;6.768;2024-03-23T01:18:42;1.42;;;1.33;;
11986;SDS011;6053;51.382;6.768;2024-03-23T01:21:10;0.90;;;0.90;;
11986;SDS011;6053;51.382;6.768;2024-03-23T01:23:37;1.10;;;1.10;;
11986;SDS011;6053;51.382;6.768;2024-03-23T01:26:07;1.00;;;1.00;;
11986;SDS011;6053;51.382;6.768;2024-03-23T01:28:34;1.10;;;1.10;;
11986;SDS011;6053;51.382;6.768;2024-03-23T01:31:03;1.00;;;1.00;;
11986;SDS011;6053;51.382;6.768;2024-03-23T01:33:30;1.10;;;1.10;;
11986;SDS011;6053;51.382;6.768;2024-03-23T01:36:00;0.95;;;0.95;;
11986;SDS011;6053;51.382;6.768;2024-03-23T01:38:27;1.00;;;1.00;;
11986;SDS011;6053;51.382;6.768;2024-03-23T01:40:56;1.00;;;1.00;;
11986;SDS011;6053;51.382;6.768;2024-03-23T01:43:24;1.00;;;1.00;;
11986;SDS011;6053;51.382;6.768;2024-03-23T01:45:50;1.00;;;1.00;;
11986;SDS011;6053;51.382;6.768;2024-03-23T01:48:19;1.02;;;1.02;;
11986;SDS011;6053;51.382;6.768;2024-03-23T01:50:46;1.10;;;1.10;;
11986;SDS011;6053;51.382;6.768;2024-03-23T01:53:21;0.77;;;0.77;;
11986;SDS011;6053;51.382;6.768;2024-03-23T01:55:48;0.98;;;0.98;;
11986;SDS011;6053;51.382;6.768;2024-03-23T01:58:17;2.25;;;1.20;;
11986;SDS011;6053;51.382;6.768;2024-03-23T02:00:52;0.90;;;0.90;;
11986;SDS011;6053;51.382;6.768;2024-03-23T02:03:22;0.90;;;0.90;;
11986;SDS011;6053;51.382;6.768;2024-03-23T02:05:49;1.10;;;1.10;;
11986;SDS011;6053;51.382;6.768;2024-03-23T02:08:20;1.70;;;1.25;;
11986;SDS011;6053;51.382;6.768;2024-03-23T02:10:48;0.90;;;0.90;;
11986;SDS011;6053;51.382;6.768;2024-03-23T02:13:17;1.10;;;1.10;;
11986;SDS011;6053;51.382;6.768;2024-03-23T02:15:45;1.20;;;1.20;;
11986;SDS011;6053;51.382;6.768;2024-03-23T02:18:12;1.50;;;1.40;;
11986;SDS011;6053;51.382;6.768;2024-03-23T02:20:39;1.00;;;1.00;;
11986;SDS011;6053;51.382;6.768;2024-03-23T02:23:10;1.10;;;1.10;;
11986;SDS011;6053;51.382;6.768;2024-03-23T02:25:39;1.40;;;1.30;;
11986;SDS011;6053;51.382;6.768;2024-03-23T02:28:09;1.10;;;1.10;;
11986;SDS011;6053;51.382;6.768;2024-03-23T02:30:39;1.10;;;1.10;;
11986;SDS011;6053;51.382;6.768;2024-03-23T02:33:06;1.05;;;1.05;;
11986;SDS011;6053;51.382;6.768;2024-03-23T02:35:35;0.90;;;0.90;;
11986;SDS011;6053;51.382;6.768;2024-03-23T02:38:02;1.20;;;1.20;;
11986;SDS011;6053;51.382;6.768;2024-03-23T02:40:33;0.90;;;0.90;;
11986;SDS011;6053;51.382;6.768;2024-03-23T02:43:03;1.30;;;1.30;;
11986;SDS011;6053;51.382;6.768;2024-03-23T02:45:39;1.33;;;1.20;;
11986;SDS011;6053;51.382;6.768;2024-03-23T02:48:12;1.10;;;1.00;;
11986;SDS011;6053;51.382;6.768;2024-03-23T02:50:44;1.20;;;1.20;;
11986;SDS011;6053;51.382;6.768;2024-03-23T02:53:14;0.95;;;0.95;;
11986;SDS011;6053;51.382;6.768;2024-03-23T02:55:44;1.20;;;1.20;;
11986;SDS011;6053;51.382;6.768;2024-03-23T02:58:14;1.00;;;1.00;;
11986;SDS011;6053;51.382;6.768;2024-03-23T03:00:44;1.02;;;1.02;;
11986;SDS011;6053;51.382;6.768;2024-03-23T03:03:11;1.15;;;1.15;;
11986;SDS011;6053;51.382;6.768;2024-03-23T03:05:37;1.00;;;1.00;;
11986;SDS011;6053;51.382;6.768;2024-03-23T03:08:04;1.05;;;1.05;;
11986;SDS011;6053;51.382;6.768;2024-03-23T03:10:32;0.90;;;0.90;;
11986;SDS011;6053;51.382;6.768;2024-03-23T03:13:02;1.02;;;1.02;;
11986;SDS011;6053;51.382;6.768;2024-03-23T03:15:32;1.02;;;1.02;;
11986;SDS011;6053;51.382;6.768;2024-03-23T03:18:03;1.10;;;1.10;;
11986;SDS011;6053;51.382;6.768;2024-03-23T03:20:30;1.00;;;1.00;;
11986;SDS011;6053;51.382;6.768;2024-03-23T03:22:57;1.20;;;1.20;;
11986;SDS011;6053;51.382;6.768;2024-03-23T03:25:33;1.10;;;1.10;;
11986;SDS011;6053;51.382;6.768;2024-03-23T03:28:00;1.13;;;1.13;;
11986;SDS011;6053;51.382;6.768;2024-03-23T03:30:36;1.00;;;1.00;;
11986;SDS011;6053;51.382;6.768;2024-03-23T03:33:02;1.00;;;1.00;;
11986;SDS011;6053;51.382;6.768;2024-03-23T03:35:35;1.00;;;1.00;;
11986;SDS011;6053;51.382;6.768;2024-03-23T03:38:06;0.90;;;0.90;;
11986;SDS011;6053;51.382;6.768;2024-03-23T03:40:33;1.00;;;1.00;;
11986;SDS011;6053;51.382;6.768;2024-03-23T03:43:06;1.20;;;1.17;;
11986;SDS011;6053;51.382;6.768;2024-03-23T03:45:36;0.98;;;0.98;;
11986;SDS011;6053;51.382;6.768;2024-03-23T03:48:09;1.70;;;1.20;;
11986;SDS011;6053;51.382;6.768;2024-03-23T03:50:36;1.00;;;1.00;;
11986;SDS011;6053;51.382;6.768;2024-03-23T03:53:10;1.00;;;1.00;;
11986;SDS011;6053;51.382;6.768;2024-03-23T03:55:37;0.98;;;0.98;;
11986;SDS011;6053;51.382;6.768;2024-03-23T03:58:10;1.05;;;1.05;;
11986;SDS011;6053;51.382;6.768;2024-03-23T04:00:38;1.10;;;1.10;;
11986;SDS011;6053;51.382;6.768;2024-03-23T04:03:13;1.10;;;1.10;;
11986;SDS011;6053;51.382;6.768;2024-03-23T04:05:40;1.50;;;1.17;;
11986;SDS011;6053;51.382;6.768;2024-03-23T04:08:12;1.10;;;1.10;;
11986;SDS011;6053;51.382;6.768;2024-03-23T04:10:45;1.13;;;1.02;;
11986;SDS011;6053;51.382;6.768;2024-03-23T04:13:13;1.33;;;1.33;;
11986;SDS011;6053;51.382;6.768;2024-03-23T04:15:43;1.85;;;1.60;;
11986;SDS011;6053;51.382;6.768;2024-03-23T04:18:13;1.00;;;1.00;;
11986;SDS011;6053;51.382;6.768;2024-03-23T04:20:43;1.30;;;1.30;;
11986;SDS011;6053;51.382;6.768;2024-03-23T04:23:11;1.47;;;1.37;;
11986;SDS011;6053;51.382;6.768;2024-03-23T04:25:38;4.10;;;2.10;;
11986;SDS011;6053;51.382;6.768;2024-03-23T04:28:04;1.83;;;1.73;;
11986;SDS011;6053;51.382;6.768;2024-03-23T04:30:35;1.27;;;1.20;;
11986;SDS011;6053;51.382;6.768;2024-03-23T04:33:03;2.17;;;1.77;;
11986;SDS011;6053;51.382;6.768;2024-03-23T04:35:31;1.20;;;1.20;;
11986;SDS011;6053;51.382;6.768;2024-03-23T04:37:57;1.23;;;1.23;;
11986;SDS011;6053;51.382;6.768;2024-03-23T04:40:24;2.67;;;1.77;;
11986;SDS011;6053;51.382;6.768;2024-03-23T04:42:51;1.65;;;1.58;;
11986;SDS011;6053;51.382;6.768;2024-03-23T04:45:18;1.63;;;1.52;;
11986;SDS011;6053;51.382;6.768;2024-03-23T04:47:51;1.88;;;1.77;;
11986;SDS011;6053;51.382;6.768;2024-03-23T04:50:27;1.13;;;1.13;;
11986;SDS011;6053;51.382;6.768;2024-03-23T04:52:54;2.72;;;1.65;;
11986;SDS011;6053;51.382;6.768;2024-03-23T04:55:21;1.27;;;1.23;;
11986;SDS011;6053;51.382;6.768;2024-03-23T04:57:48;1.40;;;1.30;;
11986;SDS011;6053;51.382;6.768;2024-03-23T05:00:15;1.47;;;1.43;;
11986;SDS011;6053;51.382;6.768;2024-03-23T05:02:43;1.40;;;1.40;;
11986;SDS011;6053;51.382;6.768;2024-03-23T05:05:16;1.17;;;1.17;;
11986;SDS011;6053;51.382;6.768;2024-03-23T05:07:47;2.10;;;1.83;;
11986;SDS011;6053;51.382;6.768;2024-03-23T05:10:14;1.30;;;1.30;;
11986;SDS011;6053;51.382;6.768;2024-03-23T05:12:47;3.70;;;1.80;;
11986;SDS011;6053;51.382;6.768;2024-03-23T05:15:14;1.73;;;1.63;;
11986;SDS011;6053;51.382;6.768;2024-03-23T05:17:44;1.23;;;1.23;;
11986;SDS011;6053;51.382;6.768;2024-03-23T05:20:11;1.55;;;1.45;;
11986;SDS011;6053;51.382;6.768;2024-03-23T05:22:49;3.42;;;2.10;;
11986;SDS011;6053;51.382;6.768;2024-03-23T05:25:16;2.45;;;1.98;;
11986;SDS011;6053;51.382;6.768;2024-03-23T05:27:46;1.10;;;1.10;;
11986;SDS011;6053;51.382;6.768;2024-03-23T05:30:16;3.67;;;1.95;;
11986;SDS011;6053;51.382;6.768;2024-03-23T05:32:46;1.70;;;1.60;;
11986;SDS011;6053;51.382;6.768;2024-03-23T05:35:12;1.30;;;1.30;;
11986;SDS011;6053;51.382;6.768;2024-03-23T05:37:39;1.30;;;1.20;;
11986;SDS011;6053;51.382;6.768;2024-03-23T05:40:11;1.08;;;1.08;;
11986;SDS011;6053;51.382;6.768;2024-03-23T05:42:47;2.38;;;1.92;;
11986;SDS011;6053;51.382;6.768;2024-03-23T05:45:14;1.50;;;1.40;;
11986;SDS011;6053;51.382;6.768;2024-03-23T05:47:44;1.00;;;1.00;;
11986;SDS011;6053;51.382;6.768;2024-03-23T05:50:10;2.05;;;1.88;;
11986;SDS011;6053;51.382;6.768;2024-03-23T05:52:38;1.92;;;1.73;;
11986;SDS011;6053;51.382;6.768;2024-03-23T05:55:10;1.13;;;1.13;;
11986;SDS011;6053;51.382;6.768;2024-03-23T05:57:38;1.90;;;1.80;;
11986;SDS011;6053;51.382;6.768;2024-03-23T06:00:05;5.05;;;2.28;;
11986;SDS011;6053;51.382;6.768;2024-03-23T06:02:36;1.20;;;1.20;;
11986;SDS011;6053;51.382;6.768;2024-03-23T06:05:03;1.75;;;1.45;;
11986;SDS011;6053;51.382;6.768;2024-03-23T06:07:30;2.15;;;2.05;;
11986;SDS011;6053;51.382;6.768;2024-03-23T06:09:57;3.75;;;1.95;;
11986;SDS011;6053;51.382;6.768;2024-03-23T06:12:25;4.95;;;2.50;;
11986;SDS011;6053;51.382;6.768;2024-03-23T06:14:51;1.80;;;1.70;;
11986;SDS011;6053;51.382;6.768;2024-03-23T06:17:19;5.20;;;2.90;;
11986;SDS011;6053;51.382;6.768;2024-03-23T06:19:45;3.00;;;1.90;;
11986;SDS011;6053;51.382;6.768;2024-03-23T06:22:12;1.50;;;1.40;;
11986;SDS011;6053;51.382;6.768;2024-03-23T06:24:39;4.07;;;2.70;;
11986;SDS011;6053;51.382;6.768;2024-03-23T06:27:09;2.03;;;1.85;;
11986;SDS011;6053;51.382;6.768;2024-03-23T06:29:40;1.53;;;1.43;;
11986;SDS011;6053;51.382;6.768;2024-03-23T06:32:07;5.30;;;2.70;;
11986;SDS011;6053;51.382;6.768;2024-03-23T06:34:37;3.67;;;2.35;;
11986;SDS011;6053;51.382;6.768;2024-03-23T06:37:06;2.80;;;1.83;;
11986;SDS011;6053;51.382;6.768;2024-03-23T06:39:38;2.22;;;2.03;;
11986;SDS011;6053;51.382;6.768;2024-03-23T06:42:05;4.43;;;2.78;;
11986;SDS011;6053;51.382;6.768;2024-03-23T06:44:43;2.70;;;1.80;;
11986;SDS011;6053;51.382;6.768;2024-03-23T06:47:11;1.70;;;1.60;;
11986;SDS011;6053;51.382;6.768;2024-03-23T06:49:41;3.50;;;2.05;;
11986;SDS011;6053;51.382;6.768;2024-03-23T06:52:07;5.20;;;2.47;;
11986;SDS011;6053;51.382;6.768;2024-03-23T06:54:34;4.38;;;2.65;;
11986;SDS011;6053;51.382;6.768;2024-03-23T06:57:09;3.75;;;2.67;;
11986;SDS011;6053;51.382;6.768;2024-03-23T06:59:35;1.90;;;1.80;;
11986;SDS011;6053;51.382;6.768;2024-03-23T07:02:06;4.20;;;2.40;;
11986;SDS011;6053;51.382;6.768;2024-03-23T07:04:36;2.97;;;2.00;;
11986;SDS011;6053;51.382;6.768;2024-03-23T07:07:05;6.35;;;2.97;;
11986;SDS011;6053;51.382;6.768;2024-03-23T07:09:32;1.50;;;1.48;;
11986;SDS011;6053;51.382;6.768;2024-03-23T07:12:03;5.00;;;2.53;;
11986;SDS011;6053;51.382;6.768;2024-03-23T07:14:37;1.48;;;1.48;;
11986;SDS011;6053;51.382;6.768;2024-03-23T07:17:04;3.17;;;1.77;;
11986;SDS011;6053;51.382;6.768;2024-03-23T07:19:32;3.13;;;1.90;;
11986;SDS011;6053;51.382;6.768;2024-03-23T07:21:58;1.40;;;1.30;;
11986;SDS011;6053;51.382;6.768;2024-03-23T07:24:25;1.63;;;1.40;;
11986;SDS011;6053;51.382;6.768;2024-03-23T07:26:52;4.10;;;2.50;;
11986;SDS011;6053;51.382;6.768;2024-03-23T07:29:20;5.63;;;2.78;;
11986;SDS011;6053;51.382;6.768;2024-03-23T07:31:49;3.58;;;2.42;;
11986;SDS011;6053;51.382;6.768;2024-03-23T07:34:17;1.75;;;1.65;;
11986;SDS011;6053;51.382;6.768;2024-03-23T07:36:47;1.55;;;1.50;;
11986;SDS011;6053;51.382;6.768;2024-03-23T07:39:14;2.92;;;1.95;;
11986;SDS011;6053;51.382;6.768;2024-03-23T07:41:43;6.85;;;2.83;;
11986;SDS011;6053;51.382;6.768;2024-03-23T07:44:13;5.30;;;2.70;;
11986;SDS011;6053;51.382;6.768;2024-03-23T07:46:43;2.85;;;2.22;;
11986;SDS011;6053;51.382;6.768;2024-03-23T07:49:13;2.83;;;1.88;;
11986;SDS011;6053;51.382;6.768;2024-03-23T07:51:43;1.92;;;1.75;;
11986;SDS011;6053;51.382;6.768;2024-03-23T07:54:10;2.30;;;2.00;;
11986;SDS011;6053;51.382;6.768;2024-03-23T07:56:37;4.53;;;2.20;;
11986;SDS011;6053;51.382;6.768;2024-03-23T07:59:07;6.37;;;2.90;;
11986;SDS011;6053;51.382;6.768;2024-03-23T08:01:34;5.05;;;2.40;;
11986;SDS011;6053;51.382;6.768;2024-03-23T08:04:03;2.60;;;1.75;;
11986;SDS011;6053;51.382;6.768;2024-03-23T08:06:34;5.82;;;2.97;;
11986;SDS011;6053;51.382;6.768;2024-03-23T08:09:15;2.35;;;1.98;;
11986;SDS011;6053;51.382;6.768;2024-03-23T08:11:44;7.13;;;3.20;;
11986;SDS011;6053;51.382;6.768;2024-03-23T08:14:15;8.53;;;3.37;;
11986;SDS011;6053;51.382;6.768;2024-03-23T08:16:42;6.25;;;2.95;;
11986;SDS011;6053;51.382;6.768;2024-03-23T08:19:14;6.23;;;2.67;;
11986;SDS011;6053;51.382;6.768;2024-03-23T08:21:44;1.50;;;1.40;;
11986;SDS011;6053;51.382;6.768;2024-03-23T08:24:10;4.50;;;2.30;;
11986;SDS011;6053;51.382;6.768;2024-03-23T08:26:38;2.33;;;1.95;;
11986;SDS011;6053;51.382;6.768;2024-03-23T08:29:08;7.40;;;3.37;;
11986;SDS011;6053;51.382;6.768;2024-03-23T08:31:37;6.10;;;3.03;;
11986;SDS011;6053;51.382;6.768;2024-03-23T08:34:07;3.78;;;2.50;;
11986;SDS011;6053;51.382;6.768;2024-03-23T08:36:34;3.58;;;2.03;;
11986;SDS011;6053;51.382;6.768;2024-03-23T08:39:01;4.00;;;2.00;;
11986;SDS011;6053;51.382;6.768;2024-03-23T08:41:33;2.95;;;1.70;;
11986;SDS011;6053;51.382;6.768;2024-03-23T08:44:03;1.58;;;1.33;;
11986;SDS011;6053;51.382;6.768;2024-03-23T08:46:30;1.20;;;1.10;;
11986;SDS011;6053;51.382;6.768;2024-03-23T08:48:57;1.27;;;1.27;;
11986;SDS011;6053;51.382;6.768;2024-03-23T08:51:25;1.67;;;1.50;;
11986;SDS011;6053;51.382;6.768;2024-03-23T08:53:55;3.90;;;1.80;;
11986;SDS011;6053;51.382;6.768;2024-03-23T08:56:25;2.33;;;1.77;;
11986;SDS011;6053;51.382;6.768;2024-03-23T08:58:52;1.60;;;1.50;;
11986;SDS011;6053;51.382;6.768;2024-03-23T09:01:19;2.92;;;1.40;;
11986;SDS011;6053;51.382;6.768;2024-03-23T09:03:49;2.30;;;1.83;;
11986;SDS011;6053;51.382;6.768;2024-03-23T09:06:16;2.78;;;1.70;;
11986;SDS011;6053;51.382;6.768;2024-03-23T09:08:43;3.58;;;2.00;;
11986;SDS011;6053;51.382;6.768;2024-03-23T09:11:15;3.25;;;1.90;;
11986;SDS011;6053;51.382;6.768;2024-03-23T09:13:45;2.08;;;1.65;;
11986;SDS011;6053;51.382;6.768;2024-03-23T09:16:15;2.33;;;2.08;;
11986;SDS011;6053;51.382;6.768;2024-03-23T09:18:43;5.35;;;2.33;;
11986;SDS011;6053;51.382;6.768;2024-03-23T09:21:13;2.50;;;1.83;;
11986;SDS011;6053;51.382;6.768;2024-03-23T09:23:42;3.13;;;1.88;;
11986;SDS011;6053;51.382;6.768;2024-03-23T09:26:10;1.35;;;1.33;;
11986;SDS011;6053;51.382;6.768;2024-03-23T09:28:36;5.43;;;2.53;;
11986;SDS011;6053;51.382;6.768;2024-03-23T09:31:07;4.75;;;2.08;;
11986;SDS011;6053;51.382;6.768;2024-03-23T09:33:35;2.53;;;1.60;;
11986;SDS011;6053;51.382;6.768;2024-03-23T09:36:03;3.70;;;1.90;;
11986;SDS011;6053;51.382;6.768;2024-03-23T09:38:37;1.70;;;1.60;;
11986;SDS011;6053;51.382;6.768;2024-03-23T09:41:10;2.70;;;1.98;;
11986;SDS011;6053;51.382;6.768;2024-03-23T09:43:44;2.83;;;2.00;;
11986;SDS011;6053;51.382;6.768;2024-03-23T09:46:13;4.20;;;2.20;;
11986;SDS011;6053;51.382;6.768;2024-03-23T09:48:41;5.47;;;2.65;;
11986;SDS011;6053;51.382;6.768;2024-03-23T09:51:12;3.50;;;2.03;;
11986;SDS011;6053;51.382;6.768;2024-03-23T09:53:39;4.40;;;2.30;;
11986;SDS011;6053;51.382;6.768;2024-03-23T09:56:07;3.17;;;1.80;;
11986;SDS011;6053;51.382;6.768;2024-03-23T09:58:37;4.28;;;2.30;;
11986;SDS011;6053;51.382;6.768;2024-03-23T10:01:04;3.20;;;1.70;;
11986;SDS011;6053;51.382;6.768;2024-03-23T10:03:31;4.50;;;2.20;;
11986;SDS011;6053;51.382;6.768;2024-03-23T10:06:01;2.83;;;1.90;;
11986;SDS011;6053;51.382;6.768;2024-03-23T10:08:30;5.25;;;2.28;;
11986;SDS011;6053;51.382;6.768;2024-03-23T10:11:12;3.22;;;2.00;;
11986;SDS011;6053;51.382;6.768;2024-03-23T10:13:42;3.35;;;2.30;;
11986;SDS011;6053;51.382;6.768;2024-03-23T10:16:09;3.00;;;1.80;;
11986;SDS011;6053;51.382;6.768;2024-03-23T10:18:37;3.20;;;1.90;;
11986;SDS011;6053;51.382;6.768;2024-03-23T10:21:08;3.03;;;1.97;;
11986;SDS011;6053;51.382;6.768;2024-03-23T10:23:37;2.75;;;1.90;;
11986;SDS011;6053;51.382;6.768;2024-03-23T10:26:18;5.20;;;2.10;;
11986;SDS011;6053;51.382;6.768;2024-03-23T10:31:36;5.30;;;1.98;;
11986;SDS011;6053;51.382;6.768;2024-03-23T10:34:07;3.67;;;1.95;;
11986;SDS011;6053;51.382;6.768;2024-03-23T10:36:37;2.92;;;1.90;;
11986;SDS011;6053;51.382;6.768;2024-03-23T10:39:07;2.75;;;1.70;;
11986;SDS011;6053;51.382;6.768;2024-03-23T10:41:35;1.27;;;1.17;;
11986;SDS011;6053;51.382;6.768;2024-03-23T10:44:03;1.00;;;1.00;;
11986;SDS011;6053;51.382;6.768;2024-03-23T10:46:38;1.38;;;1.27;;
11986;SDS011;6053;51.382;6.768;2024-03-23T10:49:04;1.00;;;1.00;;
11986;SDS011;6053;51.382;6.768;2024-03-23T10:51:32;2.58;;;1.50;;
11986;SDS011;6053;51.382;6.768;2024-03-23T10:53:59;1.40;;;1.30;;
11986;SDS011;6053;51.382;6.768;2024-03-23T10:56:31;1.20;;;1.20;;
11986;SDS011;6053;51.382;6.768;2024-03-23T10:59:01;1.13;;;1.05;;
11986;SDS011;6053;51.382;6.768;2024-03-23T11:01:42;1.50;;;1.42;;
11986;SDS011;6053;51.382;6.768;2024-03-23T11:04:30;1.30;;;1.30;;
11986;SDS011;6053;51.382;6.768;2024-03-23T11:07:28;1.20;;;1.20;;
11986;SDS011;6053;51.382;6.768;2024-03-23T11:09:56;0.88;;;0.88;;
11986;SDS011;6053;51.382;6.768;2024-03-23T11:12:28;1.30;;;1.30;;
11986;SDS011;6053;51.382;6.768;2024-03-23T11:15:05;1.53;;;1.43;;
11986;SDS011;6053;51.382;6.768;2024-03-23T11:17:38;2.08;;;1.50;;
11986;SDS011;6053;51.382;6.768;2024-03-23T11:20:08;3.58;;;1.88;;
11986;SDS011;6053;51.382;6.768;2024-03-23T11:22:40;1.23;;;1.20;;
11986;SDS011;6053;51.382;6.768;2024-03-23T11:25:15;2.38;;;1.60;;
11986;SDS011;6053;51.382;6.768;2024-03-23T11:27:44;1.90;;;1.55;;
11986;SDS011;6053;51.382;6.768;2024-03-23T11:30:12;1.92;;;1.48;;
11986;SDS011;6053;51.382;6.768;2024-03-23T11:32:42;4.00;;;1.30;;
11986;SDS011;6053;51.382;6.768;2024-03-23T11:35:26;3.03;;;1.95;;
11986;SDS011;6053;51.382;6.768;2024-03-23T11:38:01;2.55;;;1.83;;
11986;SDS011;6053;51.382;6.768;2024-03-23T11:40:32;1.92;;;1.73;;
11986;SDS011;6053;51.382;6.768;2024-03-23T11:43:04;2.22;;;1.80;;
11986;SDS011;6053;51.382;6.768;2024-03-23T11:45:35;2.83;;;1.83;;
11986;SDS011;6053;51.382;6.768;2024-03-23T11:48:05;1.40;;;1.40;;
11986;SDS011;6053;51.382;6.768;2024-03-23T11:50:33;1.60;;;1.50;;
11986;SDS011;6053;51.382;6.768;2024-03-23T11:53:06;1.50;;;1.40;;
11986;SDS011;6053;51.382;6.768;2024-03-23T11:55:43;1.27;;;1.17;;
11986;SDS011;6053;51.382;6.768;2024-03-23T11:58:17;1.47;;;1.37;;
11986;SDS011;6053;51.382;6.768;2024-03-23T12:00:55;1.60;;;1.50;;
11986;SDS011;6053;51.382;6.768;2024-03-23T12:03:24;1.52;;;1.42;;
11986;SDS011;6053;51.382;6.768;2024-03-23T12:05:51;1.48;;;1.38;;
11986;SDS011;6053;51.382;6.768;2024-03-23T12:08:23;1.40;;;1.30;;
11986;SDS011;6053;51.382;6.768;2024-03-23T12:10:51;1.25;;;1.23;;
11986;SDS011;6053;51.382;6.768;2024-03-23T12:13:20;1.47;;;1.13;;
11986;SDS011;6053;51.382;6.768;2024-03-23T12:15:49;1.20;;;1.20;;
11986;SDS011;6053;51.382;6.768;2024-03-23T12:18:23;1.60;;;1.50;;
11986;SDS011;6053;51.382;6.768;2024-03-23T12:20:50;0.98;;;0.98;;
11986;SDS011;6053;51.382;6.768;2024-03-23T12:23:23;1.30;;;1.30;;
11986;SDS011;6053;51.382;6.768;2024-03-23T12:25:50;1.48;;;1.38;;
11986;SDS011;6053;51.382;6.768;2024-03-23T12:28:20;2.10;;;1.55;;
11986;SDS011;6053;51.382;6.768;2024-03-23T12:30:50;1.92;;;1.50;;
11986;SDS011;6053;51.382;6.768;2024-03-23T12:33:18;1.33;;;1.30;;
11986;SDS011;6053;51.382;6.768;2024-03-23T12:35:45;1.13;;;1.02;;
11986;SDS011;6053;51.382;6.768;2024-03-23T12:38:15;2.97;;;1.63;;
11986;SDS011;6053;51.382;6.768;2024-03-23T12:40:45;1.67;;;1.45;;
11986;SDS011;6053;51.382;6.768;2024-03-23T12:43:13;2.38;;;1.63;;
11986;SDS011;6053;51.382;6.768;2024-03-23T12:45:41;2.15;;;1.60;;
11986;SDS011;6053;51.382;6.768;2024-03-23T12:48:15;1.33;;;1.27;;
11986;SDS011;6053;51.382;6.768;2024-03-23T12:50:42;1.50;;;1.42;;
11986;SDS011;6053;51.382;6.768;2024-03-23T12:53:09;1.37;;;1.27;;
11986;SDS011;6053;51.382;6.768;2024-03-23T12:55:36;1.30;;;1.30;;
11986;SDS011;6053;51.382;6.768;2024-03-23T12:58:03;1.10;;;1.10;;
11986;SDS011;6053;51.382;6.768;2024-03-23T13:00:30;1.10;;;1.00;;
11986;SDS011;6053;51.382;6.768;2024-03-23T13:03:13;1.23;;;1.23;;
11986;SDS011;6053;51.382;6.768;2024-03-23T13:05:41;1.00;;;1.00;;
11986;SDS011;6053;51.382;6.768;2024-03-23T13:08:08;2.13;;;1.70;;
11986;SDS011;6053;51.382;6.768;2024-03-23T13:10:35;1.63;;;1.30;;
11986;SDS011;6053;51.382;6.768;2024-03-23T13:13:02;2.65;;;1.65;;
11986;SDS011;6053;51.382;6.768;2024-03-23T13:15:29;1.48;;;1.33;;
11986;SDS011;6053;51.382;6.768;2024-03-23T13:17:56;1.50;;;1.40;;
11986;SDS011;6053;51.382;6.768;2024-03-23T13:20:25;1.80;;;1.40;;
11986;SDS011;6053;51.382;6.768;2024-03-23T13:22:55;2.17;;;1.65;;
11986;SDS011;6053;51.382;6.768;2024-03-23T13:25:28;1.67;;;1.57;;
11986;SDS011;6053;51.382;6.768;2024-03-23T13:27:56;1.88;;;1.77;;
11986;SDS011;6053;51.382;6.768;2024-03-23T13:30:23;1.50;;;1.40;;
11986;SDS011;6053;51.382;6.768;2024-03-23T13:32:50;1.55;;;1.45;;
11986;SDS011;6053;51.382;6.768;2024-03-23T13:35:20;1.80;;;1.30;;
11986;SDS011;6053;51.382;6.768;2024-03-23T13:37:48;1.50;;;1.30;;
11986;SDS011;6053;51.382;6.768;2024-03-23T13:40:15;1.43;;;1.27;;
11986;SDS011;6053;51.382;6.768;2024-03-23T13:42:45;1.20;;;1.20;;
11986;SDS011;6053;51.382;6.768;2024-03-23T13:45:13;2.80;;;1.40;;
11986;SDS011;6053;51.382;6.768;2024-03-23T13:47:48;1.30;;;1.20;;
11986;SDS011;6053;51.382;6.768;2024-03-23T13:50:18;1.40;;;1.30;;
11986;SDS011;6053;51.382;6.768;2024-03-23T13:52:45;1.70;;;1.60;;
11986;SDS011;6053;51.382;6.768;2024-03-23T13:55:12;1.50;;;1.40;;
11986;SDS011;6053;51.382;6.768;2024-03-23T13:57:41;2.78;;;1.50;;
11986;SDS011;6053;51.382;6.768;2024-03-23T14:00:08;1.37;;;1.37;;
11986;SDS011;6053;51.382;6.768;2024-03-23T14:02:36;1.60;;;1.50;;
11986;SDS011;6053;51.382;6.768;2024-03-23T14:05:03;1.33;;;1.23;;
11986;SDS011;6053;51.382;6.768;2024-03-23T14:07:30;1.20;;;1.10;;
11986;SDS011;6053;51.382;6.768;2024-03-23T14:10:02;1.30;;;1.30;;
11986;SDS011;6053;51.382;6.768;2024-03-23T14:12:31;1.40;;;1.30;;
11986;SDS011;6053;51.382;6.768;2024-03-23T14:15:03;1.48;;;1.33;;
11986;SDS011;6053;51.382;6.768;2024-03-23T14:17:32;1.30;;;1.20;;
11986;SDS011;6053;51.382;6.768;2024-03-23T14:20:05;1.90;;;1.20;;
11986;SDS011;6053;51.382;6.768;2024-03-23T14:22:37;2.63;;;1.50;;
11986;SDS011;6053;51.382;6.768;2024-03-23T14:25:07;1.40;;;1.30;;
11986;SDS011;6053;51.382;6.768;2024-03-23T14:27:34;2.10;;;1.20;;
11986;SDS011;6053;51.382;6.768;2024-03-23T14:30:03;1.73;;;1.55;;
11986;SDS011;6053;51.382;6.768;2024-03-23T14:32:34;2.47;;;1.30;;
11986;SDS011;6053;51.382;6.768;2024-03-23T14:35:10;2.53;;;1.40;;
11986;SDS011;6053;51.382;6.768;2024-03-23T14:37:37;1.55;;;1.40;;
11986;SDS011;6053;51.382;6.768;2024-03-23T14:40:05;1.48;;;1.38;;
11986;SDS011;6053;51.382;6.768;2024-03-23T14:42:32;3.00;;;1.67;;
11986;SDS011;6053;51.382;6.768;2024-03-23T14:45:03;1.35;;;1.25;;
11986;SDS011;6053;51.382;6.768;2024-03-23T14:47:31;2.08;;;1.50;;
11986;SDS011;6053;51.382;6.768;2024-03-23T14:49:58;1.33;;;1.23;;
11986;SDS011;6053;51.382;6.768;2024-03-23T14:52:24;3.45;;;1.40;;
11986;SDS011;6053;51.382;6.768;2024-03-23T14:54:57;1.93;;;1.40;;
11986;SDS011;6053;51.382;6.768;2024-03-23T14:57:24;1.52;;;1.30;;
11986;SDS011;6053;51.382;6.768;2024-03-23T14:59:54;2.33;;;1.42;;
11986;SDS011;6053;51.382;6.768;2024-03-23T15:02:21;1.50;;;1.33;;
11986;SDS011;6053;51.382;6.768;2024-03-23T15:04:53;2.40;;;1.50;;
11986;SDS011;6053;51.382;6.768;2024-03-23T15:07:19;1.35;;;1.20;;
11986;SDS011;6053;51.382;6.768;2024-03-23T15:09:46;1.42;;;1.30;;
11986;SDS011;6053;51.382;6.768;2024-03-23T15:12:13;1.35;;;1.30;;
11986;SDS011;6053;51.382;6.768;2024-03-23T15:14:40;1.50;;;1.40;;
11986;SDS011;6053;51.382;6.768;2024-03-23T15:17:07;1.30;;;1.20;;
11986;SDS011;6053;51.382;6.768;2024-03-23T15:19:34;1.90;;;1.50;;
11986;SDS011;6053;51.382;6.768;2024-03-23T15:22:01;1.67;;;1.58;;
11986;SDS011;6053;51.382;6.768;2024-03-23T15:24:29;1.60;;;1.45;;
11986;SDS011;6053;51.382;6.768;2024-03-23T15:26:57;1.07;;;1.07;;
11986;SDS011;6053;51.382;6.768;2024-03-23T15:29:24;1.40;;;1.30;;
11986;SDS011;6053;51.382;6.768;2024-03-23T15:31:50;1.08;;;1.08;;
11986;SDS011;6053;51.382;6.768;2024-03-23T15:34:19;2.25;;;1.52;;
11986;SDS011;6053;51.382;6.768;2024-03-23T15:36:50;1.20;;;1.20;;
11986;SDS011;6053;51.382;6.768;2024-03-23T15:39:20;1.50;;;1.40;;
11986;SDS011;6053;51.382;6.768;2024-03-23T15:41:48;1.40;;;1.33;;
11986;SDS011;6053;51.382;6.768;2024-03-23T15:44:15;1.40;;;1.30;;
11986;SDS011;6053;51.382;6.768;2024-03-23T15:46:42;1.45;;;1.20;;
11986;SDS011;6053;51.382;6.768;2024-03-23T15:49:11;1.95;;;1.30;;
11986;SDS011;6053;51.382;6.768;2024-03-23T15:51:41;1.40;;;1.10;;
11986;SDS011;6053;51.382;6.768;2024-03-23T15:54:12;1.25;;;1.20;;
11986;SDS011;6053;51.382;6.768;2024-03-23T15:56:40;1.38;;;1.20;;
11986;SDS011;6053;51.382;6.768;2024-03-23T15:59:13;0.90;;;0.90;;
11986;SDS011;6053;51.382;6.768;2024-03-23T16:01:40;1.57;;;1.47;;
11986;SDS011;6053;51.382;6.768;2024-03-23T16:04:09;2.67;;;1.60;;
11986;SDS011;6053;51.382;6.768;2024-03-23T16:06:46;2.33;;;1.90;;
11986;SDS011;6053;51.382;6.768;2024-03-23T16:09:13;1.63;;;1.52;;